createdAt,value
2023-03-02T00:04:41.069Z,4.6
2023-03-02T00:10:33.412Z,4.6
2023-03-02T00:16:26.582Z,4.6
2023-03-02T00:22:17.977Z,4.6
2023-03-02T00:28:11.105Z,4.6
2023-03-02T00:34:03.942Z,4.6
2023-03-02T00:39:56.544Z,4.5
2023-03-02T00:45:48.953Z,4.5
2023-03-02T00:51:26.797Z,4.5
2023-03-02T00:57:20.136Z,4.5
2023-03-02T01:03:13.684Z,4.5
2023-03-02T01:09:07.334Z,4.4
2023-03-02T01:15:00.456Z,4.4
2023-03-02T01:20:53.748Z,4.5
2023-03-02T01:26:31.683Z,4.4
2023-03-02T01:32:09.398Z,4.4
2023-03-02T01:38:02.973Z,4.4
2023-03-02T01:43:55.693Z,4.4
2023-03-02T01:49:33.094Z,4.4
2023-03-02T01:55:10.719Z,4.4
2023-03-02T02:01:04.397Z,4.3
2023-03-02T02:06:58.013Z,4.3
2023-03-02T02:12:51.089Z,4.3
2023-03-02T02:18:43.750Z,4.3
2023-03-02T02:24:21.490Z,4.3
2023-03-02T02:30:15.300Z,4.3
2023-03-02T02:36:08.553Z,4.2
2023-03-02T02:42:02.194Z,4.2
2023-03-02T02:47:23.568Z,4.2
2023-03-02T02:53:15.443Z,4.2
2023-03-02T02:58:53.619Z,4.2
2023-03-02T03:04:30.899Z,4.2
2023-03-02T03:10:08.324Z,4.2
2023-03-02T03:15:46.148Z,4.1
2023-03-02T03:21:39.068Z,4.1
2023-03-02T03:27:31.468Z,4.1
2023-03-02T03:33:25.241Z,4.1
2023-03-02T03:39:18.315Z,4.1
2023-03-02T03:45:11.619Z,4.1
2023-03-02T03:51:05.311Z,4
2023-03-02T03:56:59.966Z,4
2023-03-02T04:02:38.285Z,4
2023-03-02T04:08:16.292Z,4
2023-03-02T04:13:53.118Z,4
2023-03-02T04:19:14.680Z,4
2023-03-02T04:24:52.239Z,4
2023-03-02T04:30:30.420Z,3.9
2023-03-02T04:36:23.634Z,3.9
2023-03-02T04:42:15.860Z,3.9
2023-03-02T04:48:11.955Z,3.9
2023-03-02T04:54:04.628Z,3.9
2023-03-02T04:59:57.163Z,3.9
2023-03-02T05:05:52.009Z,3.9
2023-03-02T05:11:44.323Z,3.8
2023-03-02T05:17:37.309Z,3.8
2023-03-02T05:23:29.805Z,3.8
2023-03-02T05:29:22.989Z,3.8
2023-03-02T05:35:15.687Z,3.8
2023-03-02T05:41:09.625Z,3.8
2023-03-02T05:47:03.155Z,3.8
2023-03-02T05:52:56.286Z,3.9
2023-03-02T05:58:34.345Z,3.9
2023-03-02T06:04:11.549Z,4
2023-03-02T06:09:48.726Z,4.2
2023-03-02T06:15:25.972Z,4.3
2023-03-02T06:21:03.042Z,4.6
2023-03-02T06:26:41.315Z,4.8
2023-03-02T06:32:33.126Z,5
2023-03-02T06:38:11.156Z,5.1
2023-03-02T06:43:48.801Z,5.2
2023-03-02T06:49:26.396Z,5.3
2023-03-02T06:55:03.846Z,5.4
2023-03-02T07:00:42.391Z,5.6
2023-03-02T07:06:21.391Z,5.8
2023-03-02T07:11:59.444Z,6
2023-03-02T07:17:39.505Z,6.4
2023-03-02T07:23:17.100Z,6.8
2023-03-02T07:28:54.061Z,7.1
2023-03-02T07:34:31.755Z,7.4
2023-03-02T07:40:24.966Z,7.9
2023-03-02T07:46:18.200Z,8.4
2023-03-02T07:52:11.149Z,8.8
2023-03-02T07:57:48.220Z,9.3
2023-03-02T08:03:41.577Z,9.6
2023-03-02T08:09:34.316Z,10.1
2023-03-02T08:15:27.048Z,10.5
2023-03-02T08:21:19.390Z,10.9
2023-03-02T08:27:12.202Z,11.4
2023-03-02T08:32:50.082Z,11.9
2023-03-02T08:38:43.792Z,12.3
2023-03-02T08:44:37.522Z,12.8
2023-03-02T08:50:31.028Z,13.4
2023-03-02T08:56:23.982Z,14.1
2023-03-02T09:02:17.464Z,14.6
2023-03-02T09:08:11.076Z,14.9
2023-03-02T09:14:03.566Z,15.4
2023-03-02T09:19:56.504Z,15.8
2023-03-02T09:25:49.071Z,16.2
2023-03-02T09:31:41.414Z,16.4
2023-03-02T09:37:35.471Z,16.8
2023-03-02T09:43:38.623Z,18.8
2023-03-02T09:49:37.131Z,21.3
2023-03-02T09:55:31.474Z,22.6
2023-03-02T10:01:33.254Z,23.1
2023-03-02T10:07:17.312Z,22.7
2023-03-02T10:13:10.320Z,21.9
2023-03-02T10:19:06.759Z,21.3
2023-03-02T10:25:06.821Z,20.4
2023-03-02T10:30:59.877Z,19.8
2023-03-02T10:36:37.790Z,19.1
2023-03-02T10:42:30.206Z,18.6
2023-03-02T10:48:23.976Z,18.1
2023-03-02T10:54:32.855Z,17.8
2023-03-02T11:00:25.612Z,17.6
2023-03-02T11:06:19.490Z,17.7
2023-03-02T11:12:13.815Z,18.4
2023-03-02T11:18:07.766Z,19.8
2023-03-02T11:23:44.525Z,20.4
2023-03-02T11:29:22.781Z,20.8
2023-03-02T11:35:27.612Z,21
2023-03-02T11:41:25.457Z,21.1
2023-03-02T11:47:16.501Z,20.9
2023-03-02T11:53:27.981Z,20.4
2023-03-02T11:59:23.086Z,20.1
2023-03-02T12:04:46.406Z,19.7
2023-03-02T12:10:40.226Z,19.3
2023-03-02T12:16:33.888Z,18.8
2023-03-02T12:22:27.614Z,18.3
2023-03-02T12:28:20.137Z,17.8
2023-03-02T12:34:13.132Z,17.4
2023-03-02T12:40:06.865Z,17.2
2023-03-02T12:46:00.893Z,17.6
2023-03-02T12:51:58.250Z,19.4
2023-03-02T12:57:51.050Z,20.3
2023-03-02T13:03:44.833Z,20.3
2023-03-02T13:09:40.068Z,20
2023-03-02T13:15:34.632Z,19.6
2023-03-02T13:21:27.831Z,19.5
2023-03-02T13:27:20.654Z,19.6
2023-03-02T13:33:14.949Z,19.5
2023-03-02T13:39:08.100Z,19.2
2023-03-02T13:45:00.702Z,18.8
2023-03-02T13:51:10.106Z,18.3
2023-03-02T13:57:02.829Z,17.9
2023-03-02T14:02:56.374Z,17.8
2023-03-02T14:08:50.756Z,18.4
2023-03-02T14:14:29.028Z,19.2
2023-03-02T14:20:21.333Z,19.4
2023-03-02T14:26:15.493Z,19.1
2023-03-02T14:32:14.520Z,18.5
2023-03-02T14:38:06.820Z,18
2023-03-02T14:44:11.040Z,17.5
2023-03-02T14:50:03.629Z,16.9
2023-03-02T14:55:56.321Z,16.4
2023-03-02T15:01:51.686Z,15.8
2023-03-02T15:08:18.246Z,15.3
2023-03-02T15:13:54.892Z,14.8
2023-03-02T15:19:47.542Z,14.3
2023-03-02T15:25:44.219Z,13.9
2023-03-02T15:31:37.182Z,13.4
2023-03-02T15:37:30.195Z,13
2023-03-02T15:43:24.782Z,12.6
2023-03-02T15:49:17.653Z,12.2
2023-03-02T15:55:11.463Z,11.8
2023-03-02T16:01:00.058Z,11.4
2023-03-02T16:06:53.871Z,11
2023-03-02T16:12:47.486Z,10.6
2023-03-02T16:18:40.284Z,10.2
2023-03-02T16:24:33.811Z,9.8
2023-03-02T16:30:27.179Z,9.5
2023-03-02T16:36:20.580Z,9.1
2023-03-02T16:42:13.881Z,8.9
2023-03-02T16:47:52.467Z,8.6
2023-03-02T16:53:45.754Z,8.3
2023-03-02T16:59:39.434Z,8.1
2023-03-02T17:05:33.557Z,7.8
2023-03-02T17:11:31.368Z,7.6
2023-03-02T17:17:24.499Z,7.4
2023-03-02T17:23:17.154Z,7.2
2023-03-02T17:29:25.498Z,6.9
2023-03-02T17:35:18.156Z,6.8
2023-03-02T17:41:10.774Z,6.6
2023-03-02T17:47:07.763Z,6.4
2023-03-02T17:53:00.907Z,6.3
2023-03-02T17:59:01.308Z,6.1
2023-03-02T18:04:54.552Z,5.9
2023-03-02T18:10:51.110Z,5.8
2023-03-02T18:16:44.105Z,5.7
2023-03-02T18:22:21.584Z,5.5
2023-03-02T18:28:15.844Z,5.4
2023-03-02T18:34:09.589Z,5.3
2023-03-02T18:39:46.861Z,5.1
2023-03-02T18:45:39.508Z,4.9
2023-03-02T18:51:32.537Z,4.9
2023-03-02T18:57:26.099Z,4.8
2023-03-02T19:03:19.521Z,4.6
2023-03-02T19:09:11.492Z,4.6
2023-03-02T19:14:52.052Z,4.5
2023-03-02T19:20:46.979Z,4.4
2023-03-02T19:26:39.807Z,4.3
2023-03-02T19:32:33.530Z,4.2
2023-03-02T19:38:11.054Z,4.1
2023-03-02T19:44:04.038Z,4
2023-03-02T19:49:59.148Z,3.9
2023-03-02T19:55:52.458Z,3.8
2023-03-02T20:01:47.559Z,3.7
2023-03-02T20:07:25.360Z,3.6
2023-03-02T20:13:19.266Z,3.6
2023-03-02T20:19:22.826Z,3.4
2023-03-02T20:25:15.500Z,3.4
2023-03-02T20:31:08.722Z,3.4
2023-03-02T20:37:03.198Z,3.4
2023-03-02T20:42:59.356Z,3.3
2023-03-02T20:48:53.056Z,3.3
2023-03-02T20:54:45.989Z,3.3
2023-03-02T21:00:23.959Z,3.3
2023-03-02T21:06:17.017Z,3.3
2023-03-02T21:12:12.937Z,3.3
2023-03-02T21:18:08.661Z,3.3
2023-03-02T21:23:58.761Z,3.3
2023-03-02T21:29:54.964Z,3.3
2023-03-02T21:35:49.632Z,3.3
2023-03-02T21:41:43.761Z,3.3
2023-03-02T21:47:37.638Z,3.3
2023-03-02T21:53:17.244Z,3.3
2023-03-02T21:59:10.827Z,3.3
2023-03-02T22:05:03.810Z,3.2
2023-03-02T22:10:56.606Z,3.1
2023-03-02T22:16:50.702Z,3.1
2023-03-02T22:22:44.542Z,3.1
2023-03-02T22:28:37.417Z,3
2023-03-02T22:34:30.180Z,3
2023-03-02T22:40:23.746Z,2.9
2023-03-02T22:46:16.938Z,2.9
2023-03-02T22:52:10.813Z,2.9
2023-03-02T22:58:04.926Z,2.8
2023-03-02T23:03:58.319Z,2.8
2023-03-02T23:09:51.807Z,2.7
2023-03-02T23:15:45.834Z,2.7
2023-03-02T23:21:39.131Z,2.6
2023-03-02T23:27:31.127Z,2.6
2023-03-02T23:33:24.378Z,2.6
2023-03-02T23:39:16.958Z,2.6
2023-03-02T23:45:09.537Z,2.6
2023-03-02T23:51:01.896Z,2.6
2023-03-02T23:56:56.067Z,2.6
